ホワイトホース の空港の天気 - METARとTAF

ホワイトホース国際空港 ( CYXY / YXY ) - カナダ ユーコン準州ホワイトホース
飛行場実況気象(Metar)
観測時間01/22 21:12 PST (01/23 05:12 UTC)
風向・風速南南西 6m/s
視程10km以上
天気現象弱い雪
少しの雲 雲底高度 1830m
全天の8割程度の雲 雲底高度 3350m
全天の8割程度の雲 雲底高度 4880m
気温-13℃
湿度85%
気圧1011.5hPa
METARCYXY 230512Z 20012KT 15SM -SN FEW060 BKN110 BKN160 M13/M15 A2968 RMK SC1AC4AC2 SLP115
過去の天気等 Google飛行場航空写真 Wunderground天気予報

過去48時間のMETAR

飛行場予報(TAF)
発表時間: 1/22 21:38 PST (1/23 05:38 UTC)
予報対象時間: 22日22時 PST ~ 23日10時 PST
風向・風速南南西 6m/s
視程10km以上
全天の4割程度の雲 雲底高度 1,830m
全天の8割程度の雲 雲底高度 3,350m
22日22時 PST ~ 23日7時 PST に一時的に
視程8,050m
天気現象弱いしゅう雪
全天の8割程度の雲 雲底高度 1,830m
23日7時 PST から
風向・風速南 6m/s
視程10km以上
全天の4割程度の雲 雲底高度 4,570m
TAF CYXY 230538Z 2306/2318 20012KT P6SM SCT060 BKN110
TEMPO 2306/2315 5SM -SHSN BKN060
FM231500 18012KT P6SM SCT150 RMK NXT FCST BY 231200Z